Terminal Aerodrome Forecast
Issued by NWS Amarillo, TX

Home | Current Version | Previous Version | Text Only | Print | Product List | Glossary On
Versions: 1 2 3 4 5 6 7 8 9 10 11 12 13 14 15 16 17 18 19 20 21 22 23 24
000
FTUS44 KAMA 292300
TAFGUY
TAF
KGUY 292320Z 3000/3024 03011KT P6SM SCT050 BKN080
     FM300400 01010KT P6SM BKN050
     FM300800 01012KT P6SM BKN010
     FM301500 02010KT P6SM SCT010 BKN060
     FM302000 01009KT P6SM SCT070 BKN200=

USA.gov is the U.S. government's official web portal to all federal, state and local government web resources and services.